Time;durP1;ratioP1;P1;durP2;ratioP2;P2;SDS_P1;SDS_P2;PMS_P1;PMS_P2;Temp;Humidity;BMP_temperature;BMP_pressure;BME280_temperature;BME280_humidity;BME280_pressure;Samples;Min_cycle;Max_cycle;Signal;HPM_P1;HPM_P2
2023/03/03 00:04:15;;;;;;;75.40;43.80;;;;;;;3.11;61.57;99315.30;235245;1196;138699;-71
2023/03/03 00:09:18;;;;;;;76.00;43.30;;;;;;;3.02;61.53;99307.66;235189;1192;139112;-70
2023/03/03 00:14:30;;;;;;;77.70;43.40;;;;;;;2.91;61.86;99303.21;235133;1193;138681;-70
2023/03/03 00:19:38;;;;;;;87.30;47.30;;;;;;;2.85;61.84;99304.25;235163;1193;139160;-70
2023/03/03 00:24:42;;;;;;;81.70;46.60;;;;;;;2.77;62.32;99300.09;235161;1193;138992;-70
2023/03/03 00:29:49;;;;;;;81.50;44.90;;;;;;;2.74;62.15;99295.27;234801;1196;138924;-70
2023/03/03 00:35:01;;;;;;;91.00;49.00;;;;;;;2.69;62.14;99291.55;234529;1199;138680;-69
2023/03/03 00:40:26;;;;;;;87.10;48.10;;;;;;;2.66;62.07;99289.88;235129;1193;138476;-70
2023/03/03 00:45:37;;;;;;;83.90;48.50;;;;;;;2.60;62.10;99281.43;235092;1193;138997;-73
2023/03/03 00:50:42;;;;;;;96.50;50.50;;;;;;;2.53;62.41;99278.10;235090;1193;139177;-70
2023/03/03 00:55:47;;;;;;;88.80;49.70;;;;;;;2.51;62.19;99280.61;235154;1193;139467;-70
2023/03/03 01:00:53;;;;;;;90.00;50.60;;;;;;;2.47;62.20;99273.55;234970;1194;140443;-70
2023/03/03 01:06:00;;;;;;;89.20;49.30;;;;;;;2.41;62.33;99273.53;235136;1196;138538;-69
2023/03/03 01:11:09;;;;;;;82.80;48.10;;;;;;;2.36;62.26;99272.41;235250;1193;139081;-70
2023/03/03 01:16:13;;;;;;;88.20;49.90;;;;;;;2.30;62.48;99272.40;235296;1193;139256;-70
2023/03/03 01:21:17;;;;;;;92.10;52.40;;;;;;;2.23;62.69;99268.73;235137;1196;138623;-70
2023/03/03 01:26:20;;;;;;;91.00;50.90;;;;;;;2.23;62.65;99262.23;235110;1192;139616;-69
2023/03/03 01:31:23;;;;;;;93.20;52.10;;;;;;;2.22;62.55;99262.45;235152;1193;138707;-70
2023/03/03 01:36:28;;;;;;;95.50;51.70;;;;;;;2.20;62.71;99257.23;235144;1196;139438;-70
2023/03/03 01:41:32;;;;;;;94.20;51.40;;;;;;;2.17;62.58;99252.76;234939;1193;139796;-70
2023/03/03 01:46:39;;;;;;;89.30;49.50;;;;;;;2.14;62.30;99256.69;235226;1192;139050;-70
2023/03/03 01:51:57;;;;;;;89.20;51.60;;;;;;;2.08;62.57;99252.80;235164;1193;138774;-67
2023/03/03 01:57:05;;;;;;;88.40;52.00;;;;;;;2.05;62.69;99250.08;234912;1194;138349;-71
2023/03/03 02:02:09;;;;;;;87.20;50.60;;;;;;;2.07;62.75;99248.10;235231;1193;139157;-67
2023/03/03 02:07:15;;;;;;;88.40;50.40;;;;;;;2.03;62.82;99255.20;234932;1193;138752;-67
2023/03/03 02:12:21;;;;;;;87.40;50.40;;;;;;;2.00;62.79;99261.75;234962;1193;138540;-67
2023/03/03 02:17:25;;;;;;;91.00;50.20;;;;;;;2.00;62.99;99262.45;235050;1196;139043;-67
2023/03/03 02:22:49;;;;;;;79.10;46.50;;;;;;;1.99;62.94;99262.99;235160;1193;138821;-67
2023/03/03 02:27:53;;;;;;;89.50;50.70;;;;;;;1.94;62.89;99265.75;234091;1193;139561;-66
2023/03/03 02:32:56;;;;;;;83.20;46.90;;;;;;;1.95;63.07;99261.35;235224;1192;139164;-66
2023/03/03 02:38:26;;;;;;;82.80;46.40;;;;;;;1.95;63.00;99263.44;235097;1197;138612;-66
2023/03/03 02:43:45;;;;;;;88.40;49.30;;;;;;;1.91;63.00;99264.41;235086;1193;139529;-67
2023/03/03 02:48:48;;;;;;;79.60;46.00;;;;;;;1.89;63.27;99257.44;235059;1193;138523;-66
2023/03/03 02:53:51;;;;;;;78.30;45.80;;;;;;;1.83;63.33;99254.97;235197;1192;139318;-67
2023/03/03 02:58:55;;;;;;;79.40;44.70;;;;;;;1.80;63.30;99249.95;235097;1193;139472;-68
2023/03/03 03:03:59;;;;;;;79.30;45.00;;;;;;;1.82;63.42;99247.48;235295;1193;138591;-66
2023/03/03 03:09:05;;;;;;;77.70;46.90;;;;;;;1.76;63.52;99246.56;235017;1193;139240;-66
2023/03/03 03:14:09;;;;;;;;;;;;;;;1.71;63.45;99251.22;234962;1193;138559;-66
2023/03/03 03:19:13;;;;;;;71.80;43.40;;;;;;;1.67;63.64;99247.48;235173;1193;125160;-65
2023/03/03 03:24:18;;;;;;;69.10;40.80;;;;;;;1.65;63.72;99245.40;235089;1193;139239;-66
2023/03/03 03:29:27;;;;;;;79.80;43.20;;;;;;;1.64;63.82;99244.73;234711;1194;139563;-67
2023/03/03 03:34:30;;;;;;;84.70;49.40;;;;;;;1.68;64.29;99246.20;235203;1193;138638;-66
2023/03/03 03:39:35;;;;;;;79.10;44.70;;;;;;;1.75;63.98;99244.83;235151;1195;138607;-67
2023/03/03 03:44:38;;;;;;;82.60;45.00;;;;;;;1.76;63.97;99246.57;235063;1196;139790;-66
2023/03/03 03:49:42;;;;;;;78.20;44.40;;;;;;;1.81;63.77;99248.03;235068;1193;139447;-67
2023/03/03 03:54:45;;;;;;;85.10;49.90;;;;;;;1.78;63.69;99246.89;235127;1196;138963;-66
2023/03/03 03:59:49;;;;;;;82.60;44.10;;;;;;;1.84;63.96;99245.50;235065;1193;139044;-67
2023/03/03 04:04:53;;;;;;;80.90;44.00;;;;;;;1.84;63.19;99247.43;235108;1196;139117;-66
2023/03/03 04:09:56;;;;;;;72.90;43.70;;;;;;;1.76;63.24;99251.11;235234;1192;139021;-66
2023/03/03 04:14:59;;;;;;;77.60;42.30;;;;;;;1.70;63.23;99242.51;235157;1192;138414;-66
2023/03/03 04:20:05;;;;;;;73.10;43.00;;;;;;;1.62;63.20;99235.33;235084;1192;140414;-67
2023/03/03 04:25:13;;;;;;;79.60;46.00;;;;;;;1.53;63.25;99243.40;234965;1196;138815;-66
2023/03/03 04:30:17;;;;;;;76.10;42.40;;;;;;;1.50;63.40;99250.98;235182;1193;139434;-66
2023/03/03 04:35:22;;;;;;;70.10;40.50;;;;;;;1.43;63.48;99251.15;234948;1196;139619;-66
2023/03/03 04:40:26;;;;;;;120.10;66.90;;;;;;;1.44;63.89;99250.06;235098;1194;138643;-66
2023/03/03 04:45:30;;;;;;;76.00;45.20;;;;;;;1.53;63.70;99248.83;235008;1194;139148;-66
2023/03/03 04:50:34;;;;;;;77.70;45.40;;;;;;;1.63;63.33;99241.08;234953;1197;139350;-66
2023/03/03 04:55:38;;;;;;;74.00;45.60;;;;;;;1.64;63.03;99242.98;234920;1197;139232;-69
2023/03/03 05:00:42;;;;;;;75.60;43.60;;;;;;;1.67;63.06;99244.34;235222;1193;140188;-69
2023/03/03 05:05:46;;;;;;;79.30;43.50;;;;;;;1.66;62.82;99245.73;235042;1195;139322;-69
2023/03/03 05:10:54;;;;;;;79.10;44.80;;;;;;;1.62;62.90;99250.36;235161;1192;139477;-69
2023/03/03 05:15:57;;;;;;;83.80;44.30;;;;;;;1.57;62.76;99246.30;235234;1197;138622;-69
2023/03/03 05:21:00;;;;;;;89.50;44.40;;;;;;;1.47;62.71;99245.12;234931;1193;138440;-70
2023/03/03 05:26:04;;;;;;;72.30;43.00;;;;;;;1.37;62.96;99248.65;235150;1196;138723;-69
2023/03/03 05:31:07;;;;;;;77.20;43.40;;;;;;;1.37;63.29;99254.05;235203;1192;138821;-72
2023/03/03 05:36:11;;;;;;;77.70;43.20;;;;;;;1.37;63.51;99255.83;235054;1195;139162;-69
2023/03/03 05:41:14;;;;;;;76.10;41.50;;;;;;;1.36;63.85;99262.83;234971;1193;138929;-69
2023/03/03 05:46:18;;;;;;;70.50;40.10;;;;;;;1.41;64.44;99268.66;235227;1195;138505;-69
2023/03/03 05:51:21;;;;;;;71.40;40.80;;;;;;;1.54;64.79;99272.25;235084;1193;138592;-69
2023/03/03 05:56:24;;;;;;;73.80;40.20;;;;;;;1.66;64.58;99281.05;235212;1193;138724;-69
2023/03/03 06:01:28;;;;;;;62.60;36.50;;;;;;;1.73;65.01;99281.96;235109;1193;138861;-71
2023/03/03 06:06:31;;;;;;;59.40;33.20;;;;;;;1.87;65.41;99279.55;234806;1193;139221;-71
2023/03/03 06:11:36;;;;;;;56.10;34.50;;;;;;;2.02;65.11;99285.30;235258;1193;139146;-72
2023/03/03 06:16:39;;;;;;;58.00;33.70;;;;;;;2.11;64.93;99289.48;234667;1194;138753;-69
2023/03/03 06:21:42;;;;;;;60.00;34.20;;;;;;;2.19;64.79;99295.94;235173;1193;138656;-69
2023/03/03 06:26:47;;;;;;;58.20;33.10;;;;;;;2.27;64.76;99305.21;235029;1196;138858;-70
2023/03/03 06:31:51;;;;;;;57.60;34.20;;;;;;;2.35;64.51;99306.58;235068;1193;139262;-70
2023/03/03 06:36:55;;;;;;;58.20;34.50;;;;;;;2.41;64.28;99308.36;235025;1195;139168;-69
2023/03/03 06:41:58;;;;;;;62.40;35.60;;;;;;;2.42;64.18;99308.50;235149;1193;138859;-69
2023/03/03 06:47:02;;;;;;;61.10;32.60;;;;;;;2.49;64.34;99306.59;235004;1193;138821;-72
2023/03/03 06:52:21;;;;;;;61.40;35.00;;;;;;;2.53;64.10;99306.33;235210;1193;138807;-70
2023/03/03 06:57:33;;;;;;;59.00;35.50;;;;;;;2.57;63.90;99300.42;235124;1193;138432;-69
2023/03/03 07:02:36;;;;;;;59.90;35.60;;;;;;;2.69;63.63;99299.77;235115;1193;138566;-70
2023/03/03 07:07:39;;;;;;;66.80;36.50;;;;;;;2.79;63.35;99297.95;235021;1195;139636;-70
2023/03/03 07:12:43;;;;;;;77.40;41.90;;;;;;;2.94;63.13;99281.05;235208;1193;139116;-70
2023/03/03 07:17:57;;;;;;;76.20;45.40;;;;;;;3.00;63.54;99290.19;235168;1196;139016;-70
2023/03/03 07:23:13;;;;;;;81.50;47.10;;;;;;;3.01;63.52;99294.88;235250;1194;139099;-70
2023/03/03 07:28:24;;;;;;;82.90;46.30;;;;;;;3.09;63.41;99300.63;233825;1193;140383;-71
2023/03/03 07:33:36;;;;;;;75.10;45.90;;;;;;;3.13;63.72;99292.30;235075;1193;138675;-71
2023/03/03 07:38:47;;;;;;;76.10;44.70;;;;;;;3.23;63.68;99267.98;234990;1196;138793;-71
2023/03/03 07:44:04;;;;;;;72.80;43.00;;;;;;;3.37;63.42;99273.02;235166;1196;138600;-71
2023/03/03 07:49:30;;;;;;;79.10;45.60;;;;;;;3.36;63.26;99267.25;234384;1197;138780;-72
2023/03/03 07:54:37;;;;;;;90.80;51.30;;;;;;;3.43;63.09;99269.31;234973;1194;138671;-73
2023/03/03 07:59:48;;;;;;;94.20;54.80;;;;;;;3.53;62.73;99282.89;235008;1196;139022;-74
2023/03/03 08:04:51;;;;;;;88.30;51.10;;;;;;;3.62;62.81;99281.42;234973;1193;138396;-74
2023/03/03 08:09:59;;;;;;;94.30;50.60;;;;;;;3.71;62.57;99264.11;235098;1197;139644;-73
2023/03/03 08:15:22;;;;;;;92.90;54.60;;;;;;;3.74;62.50;99251.03;234977;1193;139583;-73
2023/03/03 08:20:42;;;;;;;90.60;52.30;;;;;;;3.82;62.45;99265.69;234974;1193;139637;-73
2023/03/03 08:25:47;;;;;;;90.80;49.30;;;;;;;3.93;62.29;99272.38;235137;1193;139325;-74
2023/03/03 08:30:51;;;;;;;89.00;51.50;;;;;;;3.96;62.18;99279.48;235225;1193;138866;-74
2023/03/03 08:36:11;;;;;;;84.30;47.30;;;;;;;3.94;62.27;99286.20;235112;1193;138766;-73
2023/03/03 08:41:15;;;;;;;75.50;43.40;;;;;;;4.13;62.44;99274.36;235053;1193;138428;-73
2023/03/03 08:46:18;;;;;;;71.60;41.60;;;;;;;4.23;62.08;99271.43;235271;1193;139626;-73
2023/03/03 08:51:22;;;;;;;74.50;43.10;;;;;;;4.15;61.84;99270.80;235190;1196;140755;-73
2023/03/03 08:56:26;;;;;;;75.90;43.60;;;;;;;4.24;62.15;99280.89;234983;1198;139689;-71
2023/03/03 09:01:31;;;;;;;76.70;46.30;;;;;;;4.32;61.86;99283.77;234709;1195;138825;-72
2023/03/03 09:06:35;;;;;;;86.20;49.80;;;;;;;4.36;61.84;99286.29;234834;1195;139494;-71
2023/03/03 09:11:38;;;;;;;82.70;49.20;;;;;;;4.44;61.60;99285.31;235056;1197;138581;-72
2023/03/03 09:16:51;;;;;;;84.70;49.50;;;;;;;4.53;61.63;99286.59;234906;1196;138609;-71
2023/03/03 09:22:00;;;;;;;82.80;48.70;;;;;;;4.62;61.45;99281.20;235213;1194;138382;-71
2023/03/03 09:27:31;;;;;;;79.60;49.90;;;;;;;4.68;61.07;99276.41;234928;1195;139249;-71
2023/03/03 09:32:38;;;;;;;88.10;51.00;;;;;;;4.74;60.88;99268.48;234992;1195;140669;-72
2023/03/03 09:37:43;;;;;;;81.10;49.50;;;;;;;4.82;60.95;99267.67;235203;1195;139204;-73
2023/03/03 09:43:02;;;;;;;86.40;50.90;;;;;;;4.84;60.59;99272.36;234930;1195;138720;-72
2023/03/03 09:48:29;;;;;;;110.40;65.80;;;;;;;4.87;60.87;99273.30;234687;1194;139080;-74
2023/03/03 09:53:35;;;;;;;89.90;52.60;;;;;;;5.01;60.50;99271.94;234927;1195;139339;-72
2023/03/03 09:58:59;;;;;;;82.60;50.00;;;;;;;5.10;60.49;99275.66;234942;1198;139636;-72
2023/03/03 10:04:41;;;;;;;91.70;52.30;;;;;;;5.14;60.25;99277.10;235118;1195;139544;-72
2023/03/03 10:09:53;;;;;;;83.10;49.80;;;;;;;5.18;60.48;99276.06;234903;1195;138677;-72
2023/03/03 10:15:48;;;;;;;81.40;49.30;;;;;;;5.26;60.37;99279.27;234791;1197;139026;-72
2023/03/03 10:21:20;;;;;;;81.40;48.50;;;;;;;5.23;60.42;99301.36;234939;1197;139097;-70
2023/03/03 10:26:41;;;;;;;94.40;51.30;;;;;;;5.24;60.33;99295.91;234778;1195;138993;-70
2023/03/03 10:32:00;;;;;;;87.90;52.60;;;;;;;5.33;60.94;99299.08;234924;1195;138504;-70
2023/03/03 10:37:15;;;;;;;76.40;46.30;;;;;;;5.47;60.51;99296.63;234882;1195;139517;-70
2023/03/03 10:42:40;;;;;;;82.00;51.40;;;;;;;5.36;60.24;99293.00;235007;1195;139349;-70
2023/03/03 10:48:17;;;;;;;83.90;52.90;;;;;;;5.42;60.73;99286.98;235169;1195;138920;-70
2023/03/03 10:53:31;;;;;;;97.90;57.10;;;;;;;5.61;60.10;99291.55;234946;1195;138897;-70
2023/03/03 10:58:41;;;;;;;100.40;58.40;;;;;;;5.73;59.94;99294.41;235014;1195;139803;-70
2023/03/03 11:04:20;;;;;;;80.30;50.20;;;;;;;5.79;59.78;99298.08;234929;1198;139481;-71
2023/03/03 11:09:36;;;;;;;83.20;47.80;;;;;;;5.71;59.47;99299.45;234915;1194;139881;-72
2023/03/03 11:14:58;;;;;;;;;;;;;;;5.69;59.16;99306.52;235009;1193;138924;-71
2023/03/03 11:20:26;;;;;;;53.30;31.50;;;;;;;5.55;58.29;99307.77;234891;1198;126034;-72
2023/03/03 11:25:33;;;;;;;53.90;30.40;;;;;;;5.35;57.90;99315.38;234865;1197;138825;-70
2023/03/03 11:31:07;;;;;;;50.80;31.20;;;;;;;5.26;57.73;99313.60;234779;1197;138630;-71
2023/03/03 11:36:19;;;;;;;56.40;31.10;;;;;;;5.23;57.54;99307.20;234783;1197;139194;-70
2023/03/03 11:41:31;;;;;;;57.30;30.60;;;;;;;5.20;57.46;99308.35;234847;1196;138791;-70
2023/03/03 11:46:45;;;;;;;51.10;28.30;;;;;;;5.18;57.58;99306.12;235022;1193;138824;-71
2023/03/03 11:52:07;;;;;;;57.30;32.80;;;;;;;5.19;57.41;99301.17;234966;1197;138550;-71
2023/03/03 11:57:11;;;;;;;49.60;29.60;;;;;;;5.17;57.31;99301.93;233254;1198;139479;-72
2023/03/03 12:02:27;;;;;;;54.60;31.10;;;;;;;5.09;57.32;99300.64;234924;1198;140729;-74
2023/03/03 12:07:46;;;;;;;55.90;30.60;;;;;;;5.03;57.28;99300.86;234896;1195;139110;-72
2023/03/03 12:13:15;;;;;;;59.20;32.40;;;;;;;4.84;57.56;99298.02;234828;1197;138589;-72
2023/03/03 12:19:01;;;;;;;61.20;31.70;;;;;;;4.74;57.73;99294.31;234621;1199;139017;-72
2023/03/03 12:24:23;;;;;;;62.60;32.40;;;;;;;4.77;58.17;99294.58;234932;1198;139504;-73
2023/03/03 12:29:29;;;;;;;65.80;33.90;;;;;;;4.83;58.05;99298.06;234881;1196;140810;-73
2023/03/03 12:34:40;;;;;;;63.60;33.40;;;;;;;4.88;58.12;99294.90;235102;1195;138675;-72
2023/03/03 12:39:49;;;;;;;63.30;33.70;;;;;;;4.87;57.63;99293.67;234438;1196;139099;-71
2023/03/03 12:44:59;;;;;;;58.60;30.00;;;;;;;4.89;57.72;99291.31;234980;1196;138652;-70
2023/03/03 12:50:09;;;;;;;58.80;30.20;;;;;;;4.73;57.70;99286.27;233115;1198;139349;-72
2023/03/03 12:55:33;;;;;;;61.30;32.50;;;;;;;4.60;58.33;99277.02;232613;1193;138936;-71
2023/03/03 13:01:13;;;;;;;59.90;31.20;;;;;;;4.64;57.96;99270.95;234918;1196;139642;-71
2023/03/03 13:06:41;;;;;;;56.90;29.70;;;;;;;4.59;57.87;99270.05;234963;1196;138643;-73
2023/03/03 13:12:14;;;;;;;51.50;26.90;;;;;;;4.53;58.29;99269.04;234848;1197;139886;-74
2023/03/03 13:17:25;;;;;;;51.00;26.80;;;;;;;4.44;58.13;99270.19;234945;1199;139165;-72
2023/03/03 13:22:49;;;;;;;51.20;26.80;;;;;;;4.39;58.17;99268.27;235034;1196;138833;-69
2023/03/03 13:28:10;;;;;;;43.30;22.70;;;;;;;4.30;58.45;99272.08;234964;1199;139034;-71
2023/03/03 13:33:17;;;;;;;45.40;23.10;;;;;;;4.33;58.23;99283.55;234846;1197;139161;-71
2023/03/03 13:38:41;;;;;;;46.50;24.00;;;;;;;4.30;58.21;99284.38;234953;1195;138782;-72
2023/03/03 13:44:08;;;;;;;44.00;25.40;;;;;;;4.08;58.07;99286.66;234841;1196;138880;-71
2023/03/03 13:49:26;;;;;;;171.20;95.10;;;;;;;3.87;58.41;99281.00;234919;1198;138547;-71
2023/03/03 13:54:48;;;;;;;44.50;25.20;;;;;;;3.86;59.26;99271.70;234792;1198;138555;-71
2023/03/03 14:00:06;;;;;;;44.90;24.70;;;;;;;4.00;58.29;99270.03;234975;1196;139106;-72
2023/03/03 14:05:27;;;;;;;52.40;25.30;;;;;;;4.11;57.91;99274.63;234968;1195;138465;-72
2023/03/03 14:10:37;;;;;;;49.60;26.30;;;;;;;4.20;57.46;99277.48;234994;1196;138491;-72
2023/03/03 14:15:46;;;;;;;40.60;23.70;;;;;;;4.26;57.45;99270.27;234855;1193;138396;-72
2023/03/03 14:20:55;;;;;;;44.60;25.30;;;;;;;4.30;57.22;99268.71;234941;1197;139241;-72
2023/03/03 14:26:10;;;;;;;48.30;24.00;;;;;;;4.31;56.89;99263.43;234913;1195;139945;-72
2023/03/03 14:31:23;;;;;;;41.70;23.20;;;;;;;4.25;56.86;99267.86;235063;1196;140909;-72
2023/03/03 14:36:34;;;;;;;42.40;23.60;;;;;;;4.21;57.13;99269.56;234913;1196;139048;-70
2023/03/03 14:41:40;;;;;;;41.90;22.80;;;;;;;4.22;56.97;99269.67;234920;1193;138832;-71
2023/03/03 14:46:44;;;;;;;45.20;23.50;;;;;;;4.27;57.33;99269.20;234931;1199;139104;-71
2023/03/03 14:51:49;;;;;;;42.00;23.20;;;;;;;4.26;56.93;99264.83;235116;1196;138794;-71
2023/03/03 14:57:10;;;;;;;106.20;57.90;;;;;;;4.26;56.95;99260.24;235046;1196;139143;-71
2023/03/03 15:02:17;;;;;;;45.40;24.30;;;;;;;4.32;56.72;99259.34;234999;1198;139629;-71
2023/03/03 15:07:25;;;;;;;45.80;24.30;;;;;;;4.30;56.40;99259.77;234866;1199;139329;-70
2023/03/03 15:12:31;;;;;;;45.90;24.50;;;;;;;4.31;56.61;99261.33;234904;1196;139523;-71
2023/03/03 15:17:43;;;;;;;37.30;21.60;;;;;;;4.30;56.51;99265.92;234848;1199;138975;-71
2023/03/03 15:22:52;;;;;;;42.40;23.80;;;;;;;4.24;56.61;99265.23;234970;1197;138850;-71
2023/03/03 15:28:16;;;;;;;45.60;22.80;;;;;;;4.27;56.57;99265.67;235078;1195;138512;-71
2023/03/03 15:33:38;;;;;;;44.50;23.30;;;;;;;4.22;56.63;99263.55;234847;1196;138760;-71
2023/03/03 15:38:47;;;;;;;45.90;24.30;;;;;;;4.17;56.75;99254.75;234816;1196;138805;-70
2023/03/03 15:44:11;;;;;;;41.30;23.80;;;;;;;4.13;56.77;99250.52;233660;1196;139412;-72
2023/03/03 15:49:46;;;;;;;47.10;26.20;;;;;;;3.98;56.88;99254.33;234933;1196;138949;-71
2023/03/03 15:54:53;;;;;;;44.60;25.50;;;;;;;3.94;56.96;99260.06;234969;1198;138472;-70
2023/03/03 15:59:56;;;;;;;;;;;;;;;3.97;56.74;99261.91;234934;1195;138471;-71
2023/03/03 16:05:15;;;;;;;35.60;21.70;;;;;;;3.93;56.62;99267.48;235062;1198;124606;-71
2023/03/03 16:10:53;;;;;;;43.40;23.70;;;;;;;3.94;56.83;99270.95;235022;1198;139428;-71
2023/03/03 16:16:24;;;;;;;39.30;22.40;;;;;;;4.00;56.92;99275.15;234868;1194;138387;-71
2023/03/03 16:21:54;;;;;;;41.30;22.60;;;;;;;4.00;56.32;99271.95;234921;1196;139146;-71
2023/03/03 16:27:14;;;;;;;44.50;22.70;;;;;;;3.99;56.89;99270.95;234834;1198;138848;-70
2023/03/03 16:32:49;;;;;;;39.50;21.10;;;;;;;3.93;56.77;99271.31;235118;1196;138261;-71
2023/03/03 16:38:08;;;;;;;39.10;21.50;;;;;;;3.88;56.76;99280.09;234886;1199;138786;-69
2023/03/03 16:43:50;;;;;;;43.80;23.60;;;;;;;3.79;56.76;99288.08;235028;1196;138799;-69
2023/03/03 16:49:25;;;;;;;43.50;23.30;;;;;;;3.70;57.01;99298.34;235032;1196;139219;-69
2023/03/03 16:54:58;;;;;;;46.70;25.90;;;;;;;3.78;56.71;99295.45;234969;1193;139252;-70
2023/03/03 17:00:17;;;;;;;43.00;21.60;;;;;;;3.77;56.61;99296.55;234923;1198;139257;-70
2023/03/03 17:05:46;;;;;;;42.00;22.70;;;;;;;3.76;56.39;99302.54;235058;1194;140264;-69
2023/03/03 17:10:52;;;;;;;38.70;22.50;;;;;;;3.67;56.89;99304.40;235073;1198;138841;-70
2023/03/03 17:16:16;;;;;;;43.30;22.90;;;;;;;3.68;56.78;99299.64;234926;1196;138713;-69
2023/03/03 17:21:26;;;;;;;37.00;19.50;;;;;;;3.70;56.27;99297.30;234937;1196;139230;-69
2023/03/03 17:26:42;;;;;;;41.00;22.10;;;;;;;3.69;56.40;99295.58;234715;1195;138807;-69
2023/03/03 17:32:11;;;;;;;34.80;20.10;;;;;;;3.79;56.31;99291.58;234902;1196;141574;-70
2023/03/03 17:37:41;;;;;;;39.40;21.70;;;;;;;3.88;57.23;99284.11;234885;1195;138937;-72
2023/03/03 17:42:56;;;;;;;44.00;23.80;;;;;;;3.96;56.18;99285.98;234931;1195;138738;-70
2023/03/03 17:48:12;;;;;;;42.20;23.50;;;;;;;3.89;56.13;99289.36;234766;1196;139141;-71
2023/03/03 17:53:34;;;;;;;46.40;25.90;;;;;;;3.89;56.32;99280.41;234988;1193;140627;-71
2023/03/03 17:58:56;;;;;;;46.90;26.70;;;;;;;3.89;56.32;99290.75;233389;1195;139228;-71
2023/03/03 18:04:11;;;;;;;51.20;29.50;;;;;;;3.89;56.63;99287.25;234826;1193;139625;-70
2023/03/03 18:09:20;;;;;;;46.40;28.60;;;;;;;3.88;56.70;99288.52;235011;1196;140890;-72
2023/03/03 18:14:30;;;;;;;50.30;28.80;;;;;;;3.83;56.99;99292.36;234765;1193;138388;-71
2023/03/03 18:20:04;;;;;;;55.00;29.80;;;;;;;3.79;57.28;99295.61;234816;1196;139686;-71
2023/03/03 18:25:11;;;;;;;51.30;29.50;;;;;;;3.80;56.87;99298.58;234867;1196;138984;-70
2023/03/03 18:30:23;;;;;;;57.80;33.10;;;;;;;3.83;57.68;99301.30;234981;1196;140134;-69
2023/03/03 18:35:32;;;;;;;51.20;28.20;;;;;;;3.88;57.86;99305.71;235063;1196;139287;-71
2023/03/03 18:40:49;;;;;;;53.20;30.50;;;;;;;3.85;57.37;99301.26;235114;1195;138718;-68
2023/03/03 18:45:54;;;;;;;49.40;28.90;;;;;;;3.81;57.70;99304.52;234915;1196;138920;-68
2023/03/03 18:50:58;;;;;;;51.60;28.40;;;;;;;3.80;57.89;99290.85;234947;1196;139555;-68
2023/03/03 18:56:09;;;;;;;48.90;29.40;;;;;;;3.82;57.73;99288.00;234824;1194;138589;-68
2023/03/03 19:01:42;;;;;;;53.10;30.30;;;;;;;3.81;57.88;99281.02;234929;1196;138667;-70
2023/03/03 19:06:54;;;;;;;53.80;30.90;;;;;;;3.71;57.74;99283.41;234884;1193;138845;-73
2023/03/03 19:11:58;;;;;;;53.40;29.80;;;;;;;3.73;58.34;99281.61;235021;1193;138765;-70
2023/03/03 19:17:17;;;;;;;50.40;28.50;;;;;;;3.70;57.92;99272.04;235132;1195;139609;-70
2023/03/03 19:22:26;;;;;;;53.30;29.40;;;;;;;3.67;57.89;99265.11;235053;1198;138486;-68
2023/03/03 19:27:36;;;;;;;49.30;27.80;;;;;;;3.61;57.78;99259.52;234809;1196;138763;-68
2023/03/03 19:32:58;;;;;;;50.30;28.20;;;;;;;3.55;57.79;99266.00;234965;1196;139388;-68
2023/03/03 19:38:19;;;;;;;48.90;28.50;;;;;;;3.44;58.01;99274.73;234749;1196;139359;-72
2023/03/03 19:43:34;;;;;;;50.20;29.40;;;;;;;3.31;58.48;99281.76;234964;1196;138672;-70
2023/03/03 19:48:43;;;;;;;50.70;28.80;;;;;;;3.21;58.90;99281.73;234938;1194;139125;-70
2023/03/03 19:53:52;;;;;;;52.20;29.40;;;;;;;3.26;58.79;99280.00;234858;1197;138778;-68
2023/03/03 19:59:19;;;;;;;48.50;29.50;;;;;;;3.21;59.07;99267.86;235104;1198;138864;-68
2023/03/03 20:04:51;;;;;;;47.30;28.10;;;;;;;3.22;59.09;99267.69;235046;1198;138638;-68
2023/03/03 20:10:00;;;;;;;46.20;27.20;;;;;;;3.17;59.28;99268.31;234947;1196;139409;-68
2023/03/03 20:15:22;;;;;;;45.30;26.10;;;;;;;3.17;59.68;99263.23;234973;1198;138776;-68
2023/03/03 20:20:47;;;;;;;47.90;27.70;;;;;;;3.17;59.55;99263.26;234717;1196;139286;-68
2023/03/03 20:25:55;;;;;;;47.50;27.90;;;;;;;3.09;59.88;99265.20;234909;1196;138747;-68
2023/03/03 20:31:08;;;;;;;44.80;25.80;;;;;;;3.09;59.89;99267.52;234968;1195;139573;-69
2023/03/03 20:36:18;;;;;;;38.70;23.20;;;;;;;3.05;60.09;99264.81;233909;1195;139421;-69
2023/03/03 20:41:33;;;;;;;45.50;26.60;;;;;;;2.99;60.30;99261.98;234964;1193;138340;-69
2023/03/03 20:47:00;;;;;;;46.20;27.30;;;;;;;2.98;60.41;99261.33;235161;1195;138718;-69
2023/03/03 20:52:30;;;;;;;42.00;23.90;;;;;;;2.97;60.36;99257.15;234850;1195;138824;-69
2023/03/03 20:57:46;;;;;;;42.30;24.40;;;;;;;2.94;60.87;99262.85;234944;1194;139063;-69
2023/03/03 21:02:59;;;;;;;54.00;28.30;;;;;;;2.83;61.16;99264.38;234901;1195;139709;-69
2023/03/03 21:08:04;;;;;;;47.60;27.10;;;;;;;2.86;61.60;99260.25;234911;1195;138603;-70
2023/03/03 21:13:36;;;;;;;51.30;26.40;;;;;;;2.82;61.55;99258.42;234857;1196;139886;-69
2023/03/03 21:18:39;;;;;;;42.90;24.20;;;;;;;2.83;61.86;99252.44;235032;1193;139027;-69
2023/03/03 21:23:42;;;;;;;52.50;27.70;;;;;;;2.69;62.10;99242.33;234380;1194;139944;-68
2023/03/03 21:28:59;;;;;;;55.80;29.30;;;;;;;2.74;62.42;99235.00;235092;1195;138814;-69
2023/03/03 21:34:21;;;;;;;54.70;28.40;;;;;;;2.84;62.52;99234.02;234827;1194;138599;-69
2023/03/03 21:39:24;;;;;;;51.80;29.00;;;;;;;2.88;62.32;99225.16;234986;1196;138852;-69
2023/03/03 21:44:49;;;;;;;49.40;25.70;;;;;;;2.94;62.45;99215.53;234988;1193;139469;-69
2023/03/03 21:49:52;;;;;;;55.20;28.40;;;;;;;2.88;62.15;99211.48;234944;1193;139375;-68
2023/03/03 21:54:55;;;;;;;53.90;28.50;;;;;;;2.77;62.61;99203.22;235043;1193;139345;-68
2023/03/03 21:59:59;;;;;;;64.80;32.20;;;;;;;2.84;62.61;99201.95;234820;1195;138751;-69
2023/03/03 22:05:06;;;;;;;60.00;30.10;;;;;;;2.91;62.56;99205.29;235076;1193;140171;-68
2023/03/03 22:10:10;;;;;;;64.10;30.90;;;;;;;2.89;62.56;99201.83;234929;1195;139320;-68
2023/03/03 22:15:13;;;;;;;70.10;36.50;;;;;;;2.80;62.88;99193.49;235073;1193;139383;-68
2023/03/03 22:20:16;;;;;;;67.40;34.30;;;;;;;2.84;62.60;99190.92;235046;1193;138984;-67
2023/03/03 22:25:19;;;;;;;74.80;37.70;;;;;;;2.79;62.77;99181.61;234934;1193;139469;-69
2023/03/03 22:30:23;;;;;;;60.50;31.20;;;;;;;2.74;63.03;99173.86;235011;1195;138752;-68
2023/03/03 22:35:26;;;;;;;62.20;32.70;;;;;;;2.64;63.22;99169.96;234981;1195;139328;-68
2023/03/03 22:40:30;;;;;;;65.50;31.30;;;;;;;2.61;63.33;99165.64;235016;1195;138922;-68
2023/03/03 22:45:34;;;;;;;63.10;32.00;;;;;;;2.66;63.53;99149.92;235015;1195;138507;-67
2023/03/03 22:50:39;;;;;;;66.50;32.90;;;;;;;2.71;63.31;99139.26;234978;1193;139420;-67
2023/03/03 22:55:42;;;;;;;74.60;35.90;;;;;;;2.79;63.20;99131.66;234873;1195;139034;-68
2023/03/03 23:00:47;;;;;;;68.30;33.90;;;;;;;2.83;63.36;99122.44;234935;1198;139161;-69
2023/03/03 23:05:50;;;;;;;76.80;37.30;;;;;;;2.73;63.41;99131.51;234944;1195;138790;-69
2023/03/03 23:10:54;;;;;;;73.50;35.80;;;;;;;2.73;63.68;99125.71;235062;1197;139005;-69
2023/03/03 23:15:59;;;;;;;74.70;35.40;;;;;;;2.72;63.79;99127.84;235064;1193;138761;-68
2023/03/03 23:21:02;;;;;;;75.10;35.50;;;;;;;2.60;63.92;99121.90;234885;1195;139091;-69
2023/03/03 23:26:06;;;;;;;70.00;33.00;;;;;;;2.46;64.29;99114.23;234969;1198;138984;-69
2023/03/03 23:31:10;;;;;;;74.00;34.70;;;;;;;2.43;64.55;99099.95;235076;1193;140502;-69
2023/03/03 23:36:16;;;;;;;68.20;32.10;;;;;;;2.47;64.51;99100.73;234969;1195;139238;-69
2023/03/03 23:41:20;;;;;;;63.40;31.80;;;;;;;2.43;64.70;99101.19;235007;1194;139323;-70